sensor_id;sensor_type;location;lat;lon;timestamp;pressure;altitude;pressure_sealevel;temperature;humidity
36062;BME280;22123;52.412;20.970;2022-08-19T00:02:08;100389.75;;;17.40;100.00
36062;BME280;22123;52.412;20.970;2022-08-19T00:04:34;100392.88;;;17.36;100.00
36062;BME280;22123;52.412;20.970;2022-08-19T00:07:01;100385.38;;;17.32;100.00
36062;BME280;22123;52.412;20.970;2022-08-19T00:09:26;100385.59;;;17.30;100.00
36062;BME280;22123;52.412;20.970;2022-08-19T00:11:52;100390.22;;;17.30;100.00
36062;BME280;22123;52.412;20.970;2022-08-19T00:14:20;100380.59;;;17.27;100.00
36062;BME280;22123;52.412;20.970;2022-08-19T00:16:46;100389.78;;;17.26;100.00
36062;BME280;22123;52.412;20.970;2022-08-19T00:19:13;100381.84;;;17.25;100.00
36062;BME280;22123;52.412;20.970;2022-08-19T00:21:38;100391.09;;;17.24;100.00
36062;BME280;22123;52.412;20.970;2022-08-19T00:24:04;100389.19;;;17.24;100.00
36062;BME280;22123;52.412;20.970;2022-08-19T00:26:30;100394.03;;;17.22;100.00
36062;BME280;22123;52.412;20.970;2022-08-19T00:28:55;100394.03;;;17.22;100.00
36062;BME280;22123;52.412;20.970;2022-08-19T00:31:21;100386.06;;;17.20;100.00
36062;BME280;22123;52.412;20.970;2022-08-19T00:33:46;100394.44;;;17.19;100.00
36062;BME280;22123;52.412;20.970;2022-08-19T00:36:15;100390.06;;;17.18;100.00
36062;BME280;22123;52.412;20.970;2022-08-19T00:38:41;100393.84;;;17.17;100.00
36062;BME280;22123;52.412;20.970;2022-08-19T00:41:08;100394.88;;;17.16;100.00
36062;BME280;22123;52.412;20.970;2022-08-19T00:43:33;100394.88;;;17.16;100.00
36062;BME280;22123;52.412;20.970;2022-08-19T00:45:59;100396.16;;;17.13;100.00
36062;BME280;22123;52.412;20.970;2022-08-19T00:48:24;100397.22;;;17.12;100.00
36062;BME280;22123;52.412;20.970;2022-08-19T00:50:50;100392.81;;;17.11;100.00
36062;BME280;22123;52.412;20.970;2022-08-19T00:53:18;100398.47;;;17.10;100.00
36062;BME280;22123;52.412;20.970;2022-08-19T00:55:45;100394.06;;;17.09;100.00
36062;BME280;22123;52.412;20.970;2022-08-19T00:58:12;100397.88;;;17.08;100.00
36062;BME280;22123;52.412;20.970;2022-08-19T01:00:38;100397.00;;;17.07;100.00
36062;BME280;22123;52.412;20.970;2022-08-19T01:03:10;100395.38;;;17.06;100.00
36062;BME280;22123;52.412;20.970;2022-08-19T01:05:35;100391.78;;;17.06;100.00
36062;BME280;22123;52.412;20.970;2022-08-19T01:08:02;100407.50;;;17.03;100.00
36062;BME280;22123;52.412;20.970;2022-08-19T01:10:29;100398.72;;;17.01;100.00
36062;BME280;22123;52.412;20.970;2022-08-19T01:12:57;100400.00;;;16.99;100.00
36062;BME280;22123;52.412;20.970;2022-08-19T01:15:26;100392.03;;;16.97;100.00
36062;BME280;22123;52.412;20.970;2022-08-19T01:17:53;100394.16;;;16.95;100.00
36062;BME280;22123;52.412;20.970;2022-08-19T01:20:20;100401.47;;;16.95;100.00
36062;BME280;22123;52.412;20.970;2022-08-19T01:22:47;100405.47;;;16.92;100.00
36062;BME280;22123;52.412;20.970;2022-08-19T01:25:13;100400.47;;;16.89;100.00
36062;BME280;22123;52.412;20.970;2022-08-19T01:27:40;100405.03;;;16.89;100.00
36062;BME280;22123;52.412;20.970;2022-08-19T01:30:06;100403.19;;;16.89;100.00
36062;BME280;22123;52.412;20.970;2022-08-19T01:32:32;100396.06;;;16.88;100.00
36062;BME280;22123;52.412;20.970;2022-08-19T01:34:57;100401.69;;;16.86;100.00
36062;BME280;22123;52.412;20.970;2022-08-19T01:37:23;100406.28;;;16.86;100.00
36062;BME280;22123;52.412;20.970;2022-08-19T01:39:48;100409.22;;;16.84;100.00
36062;BME280;22123;52.412;20.970;2022-08-19T01:42:14;100407.56;;;16.83;100.00
36062;BME280;22123;52.412;20.970;2022-08-19T01:44:39;100405.28;;;16.80;100.00
36062;BME280;22123;52.412;20.970;2022-08-19T01:47:06;100406.31;;;16.79;100.00
36062;BME280;22123;52.412;20.970;2022-08-19T01:49:32;100402.97;;;16.77;100.00
36062;BME280;22123;52.412;20.970;2022-08-19T01:51:58;100396.09;;;16.75;100.00
36062;BME280;22123;52.412;20.970;2022-08-19T01:54:24;100395.44;;;16.73;100.00
36062;BME280;22123;52.412;20.970;2022-08-19T01:56:50;100407.38;;;16.72;100.00
36062;BME280;22123;52.412;20.970;2022-08-19T01:59:17;100407.59;;;16.70;100.00
36062;BME280;22123;52.412;20.970;2022-08-19T02:01:44;100402.38;;;16.68;100.00
36062;BME280;22123;52.412;20.970;2022-08-19T02:04:11;100397.16;;;16.67;100.00
36062;BME280;22123;52.412;20.970;2022-08-19T02:06:36;100399.03;;;16.66;100.00
36062;BME280;22123;52.412;20.970;2022-08-19T02:09:02;100400.28;;;16.64;100.00
36062;BME280;22123;52.412;20.970;2022-08-19T02:11:29;100398.44;;;16.64;100.00
36062;BME280;22123;52.412;20.970;2022-08-19T02:13:56;100396.75;;;16.63;100.00
36062;BME280;22123;52.412;20.970;2022-08-19T02:16:22;100397.56;;;16.64;100.00
36062;BME280;22123;52.412;20.970;2022-08-19T02:18:47;100398.44;;;16.64;100.00
36062;BME280;22123;52.412;20.970;2022-08-19T02:21:16;100402.41;;;16.62;100.00
36062;BME280;22123;52.412;20.970;2022-08-19T02:23:42;100400.09;;;16.59;100.00
36062;BME280;22123;52.412;20.970;2022-08-19T02:26:07;100393.22;;;16.56;100.00
36062;BME280;22123;52.412;20.970;2022-08-19T02:28:33;100400.13;;;16.52;100.00
36062;BME280;22123;52.412;20.970;2022-08-19T02:30:58;100396.78;;;16.50;100.00
36062;BME280;22123;52.412;20.970;2022-08-19T02:33:25;100381.53;;;16.49;100.00
36062;BME280;22123;52.412;20.970;2022-08-19T02:35:50;100388.84;;;16.48;100.00
36062;BME280;22123;52.412;20.970;2022-08-19T02:38:16;100378.19;;;16.47;100.00
36062;BME280;22123;52.412;20.970;2022-08-19T02:40:51;100376.31;;;16.47;100.00
36062;BME280;22123;52.412;20.970;2022-08-19T02:43:19;100371.91;;;16.46;100.00
36062;BME280;22123;52.412;20.970;2022-08-19T02:45:45;100375.47;;;16.47;100.00
36062;BME280;22123;52.412;20.970;2022-08-19T02:48:10;100383.84;;;16.45;100.00
36062;BME280;22123;52.412;20.970;2022-08-19T02:50:39;100383.84;;;16.45;100.00
36062;BME280;22123;52.412;20.970;2022-08-19T02:53:04;100378.41;;;16.45;100.00
36062;BME280;22123;52.412;20.970;2022-08-19T02:55:30;100381.13;;;16.45;100.00
36062;BME280;22123;52.412;20.970;2022-08-19T02:57:55;100390.31;;;16.44;100.00
36062;BME280;22123;52.412;20.970;2022-08-19T03:00:22;100385.72;;;16.45;100.00
36062;BME280;22123;52.412;20.970;2022-08-19T03:02:48;100377.56;;;16.45;100.00
36062;BME280;22123;52.412;20.970;2022-08-19T03:05:13;100385.50;;;16.46;100.00
36062;BME280;22123;52.412;20.970;2022-08-19T03:07:39;100381.97;;;16.46;100.00
36062;BME280;22123;52.412;20.970;2022-08-19T03:10:04;100376.53;;;16.46;100.00
36062;BME280;22123;52.412;20.970;2022-08-19T03:12:30;100375.91;;;16.44;100.00
36062;BME280;22123;52.412;20.970;2022-08-19T03:14:56;100383.00;;;16.45;100.00
36062;BME280;22123;52.412;20.970;2022-08-19T03:17:21;100383.84;;;16.45;100.00
36062;BME280;22123;52.412;20.970;2022-08-19T03:19:46;100380.28;;;16.45;100.00
36062;BME280;22123;52.412;20.970;2022-08-19T03:22:19;100377.56;;;16.45;100.00
36062;BME280;22123;52.412;20.970;2022-08-19T03:24:44;100372.97;;;16.45;100.00
36062;BME280;22123;52.412;20.970;2022-08-19T03:27:09;100371.91;;;16.46;100.00
36062;BME280;22123;52.412;20.970;2022-08-19T03:29:36;100371.69;;;16.48;100.00
36062;BME280;22123;52.412;20.970;2022-08-19T03:32:03;100373.38;;;16.49;100.00
36062;BME280;22123;52.412;20.970;2022-08-19T03:34:29;100376.53;;;16.52;100.00
36062;BME280;22123;52.412;20.970;2022-08-19T03:36:55;100382.78;;;16.53;100.00
36062;BME280;22123;52.412;20.970;2022-08-19T03:39:22;100386.09;;;16.55;100.00
36062;BME280;22123;52.412;20.970;2022-08-19T03:41:48;100387.56;;;16.58;100.00
36062;BME280;22123;52.412;20.970;2022-08-19T03:44:16;100390.91;;;16.60;100.00
36062;BME280;22123;52.412;20.970;2022-08-19T03:46:42;100396.97;;;16.62;100.00
36062;BME280;22123;52.412;20.970;2022-08-19T03:49:08;100389.63;;;16.62;100.00
36062;BME280;22123;52.412;20.970;2022-08-19T03:51:36;100391.31;;;16.63;100.00
36062;BME280;22123;52.412;20.970;2022-08-19T03:54:04;100395.72;;;16.64;100.00
36062;BME280;22123;52.412;20.970;2022-08-19T03:56:29;100398.22;;;16.66;100.00
36062;BME280;22123;52.412;20.970;2022-08-19T03:58:55;100409.91;;;16.66;100.00
36062;BME280;22123;52.412;20.970;2022-08-19T04:01:22;100408.03;;;16.67;100.00
36062;BME280;22123;52.412;20.970;2022-08-19T04:03:47;100415.13;;;16.68;100.00
36062;BME280;22123;52.412;20.970;2022-08-19T04:06:13;100413.03;;;16.70;100.00
36062;BME280;22123;52.412;20.970;2022-08-19T04:08:40;100419.91;;;16.73;100.00
36062;BME280;22123;52.412;20.970;2022-08-19T04:11:08;100415.94;;;16.75;100.00
36062;BME280;22123;52.412;20.970;2022-08-19T04:13:35;100408.41;;;16.77;100.00
36062;BME280;22123;52.412;20.970;2022-08-19T04:16:00;100410.72;;;16.80;100.00
36062;BME280;22123;52.412;20.970;2022-08-19T04:18:25;100406.72;;;16.83;100.00
36062;BME280;22123;52.412;20.970;2022-08-19T04:20:51;100408.16;;;16.85;100.00
36062;BME280;22123;52.412;20.970;2022-08-19T04:23:16;100394.16;;;16.89;100.00
36062;BME280;22123;52.412;20.970;2022-08-19T04:25:43;100393.97;;;16.90;100.00
36062;BME280;22123;52.412;20.970;2022-08-19T04:28:09;100385.38;;;16.93;100.00
36062;BME280;22123;52.412;20.970;2022-08-19T04:30:38;100383.06;;;16.97;100.00
36062;BME280;22123;52.412;20.970;2022-08-19T04:33:03;100388.69;;;17.02;100.00
36062;BME280;22123;52.412;20.970;2022-08-19T04:35:34;100384.28;;;17.08;100.00
36062;BME280;22123;52.412;20.970;2022-08-19T04:37:59;100387.78;;;17.15;100.00
36062;BME280;22123;52.412;20.970;2022-08-19T04:40:24;100396.13;;;17.20;100.00
36062;BME280;22123;52.412;20.970;2022-08-19T04:43:08;100387.72;;;17.28;100.00
36062;BME280;22123;52.412;20.970;2022-08-19T04:45:39;100394.53;;;17.37;100.00
36062;BME280;22123;52.412;20.970;2022-08-19T04:48:05;100394.50;;;17.44;100.00
36062;BME280;22123;52.412;20.970;2022-08-19T04:50:31;100393.41;;;17.52;100.00
36062;BME280;22123;52.412;20.970;2022-08-19T04:52:57;100387.84;;;17.65;100.00
36062;BME280;22123;52.412;20.970;2022-08-19T04:55:22;100380.88;;;17.76;100.00
36062;BME280;22123;52.412;20.970;2022-08-19T04:57:50;100374.06;;;17.92;100.00
36062;BME280;22123;52.412;20.970;2022-08-19T05:00:16;100376.22;;;18.08;100.00
36062;BME280;22123;52.412;20.970;2022-08-19T05:02:41;100375.66;;;18.25;100.00
36062;BME280;22123;52.412;20.970;2022-08-19T05:05:06;100374.59;;;18.45;100.00
36062;BME280;22123;52.412;20.970;2022-08-19T05:07:32;100377.34;;;18.63;100.00
36062;BME280;22123;52.412;20.970;2022-08-19T05:09:57;100368.63;;;18.73;100.00
36062;BME280;22123;52.412;20.970;2022-08-19T05:12:23;100371.22;;;18.86;100.00
36062;BME280;22123;52.412;20.970;2022-08-19T05:14:48;100370.34;;;19.04;100.00
36062;BME280;22123;52.412;20.970;2022-08-19T05:17:14;100368.50;;;19.17;100.00
36062;BME280;22123;52.412;20.970;2022-08-19T05:19:40;100359.13;;;19.24;100.00
36062;BME280;22123;52.412;20.970;2022-08-19T05:22:24;100355.03;;;19.34;100.00
36062;BME280;22123;52.412;20.970;2022-08-19T05:25:02;100360.84;;;19.37;100.00
36062;BME280;22123;52.412;20.970;2022-08-19T05:27:28;100361.47;;;19.39;100.00
36062;BME280;22123;52.412;20.970;2022-08-19T05:29:54;100381.75;;;19.43;100.00
36062;BME280;22123;52.412;20.970;2022-08-19T05:32:19;100392.00;;;19.48;100.00
36062;BME280;22123;52.412;20.970;2022-08-19T05:34:44;100403.16;;;19.58;100.00
36062;BME280;22123;52.412;20.970;2022-08-19T05:37:10;100388.78;;;19.51;100.00
36062;BME280;22123;52.412;20.970;2022-08-19T05:39:36;100401.72;;;19.56;100.00
36062;BME280;22123;52.412;20.970;2022-08-19T05:42:08;100383.31;;;19.51;100.00
36062;BME280;22123;52.412;20.970;2022-08-19T05:44:40;100383.41;;;19.44;100.00
36062;BME280;22123;52.412;20.970;2022-08-19T05:47:10;100394.34;;;19.44;100.00
36062;BME280;22123;52.412;20.970;2022-08-19T05:49:36;100413.47;;;19.56;100.00
36062;BME280;22123;52.412;20.970;2022-08-19T05:52:08;100422.00;;;19.78;100.00
36062;BME280;22123;52.412;20.970;2022-08-19T05:54:34;100413.34;;;19.93;100.00
36062;BME280;22123;52.412;20.970;2022-08-19T05:57:00;100415.38;;;20.10;100.00
36062;BME280;22123;52.412;20.970;2022-08-19T05:59:25;100397.34;;;20.21;100.00
36062;BME280;22123;52.412;20.970;2022-08-19T06:01:52;100416.69;;;20.55;100.00
36062;BME280;22123;52.412;20.970;2022-08-19T06:04:19;100406.44;;;20.74;100.00
36062;BME280;22123;52.412;20.970;2022-08-19T06:06:49;100420.34;;;20.96;100.00
36062;BME280;22123;52.412;20.970;2022-08-19T06:09:17;100394.47;;;21.04;100.00
36062;BME280;22123;52.412;20.970;2022-08-19T06:11:45;100398.72;;;21.11;100.00
36062;BME280;22123;52.412;20.970;2022-08-19T06:14:16;100406.69;;;21.13;100.00
36062;BME280;22123;52.412;20.970;2022-08-19T06:16:43;100396.72;;;21.07;100.00
36062;BME280;22123;52.412;20.970;2022-08-19T06:19:12;100393.66;;;21.03;100.00
36062;BME280;22123;52.412;20.970;2022-08-19T06:21:40;100393.75;;;21.08;100.00
36062;BME280;22123;52.412;20.970;2022-08-19T06:24:08;100392.75;;;21.14;100.00
36062;BME280;22123;52.412;20.970;2022-08-19T06:26:35;100404.00;;;21.30;100.00
36062;BME280;22123;52.412;20.970;2022-08-19T06:29:03;100407.91;;;21.34;100.00
36062;BME280;22123;52.412;20.970;2022-08-19T06:31:30;100399.84;;;21.27;100.00
36062;BME280;22123;52.412;20.970;2022-08-19T06:33:59;100410.66;;;21.34;100.00
36062;BME280;22123;52.412;20.970;2022-08-19T06:36:46;100392.00;;;21.60;100.00
36062;BME280;22123;52.412;20.970;2022-08-19T06:39:20;100405.94;;;21.92;100.00
36062;BME280;22123;52.412;20.970;2022-08-19T06:41:48;100419.13;;;22.29;100.00
36062;BME280;22123;52.412;20.970;2022-08-19T06:44:14;100412.56;;;22.47;100.00
36062;BME280;22123;52.412;20.970;2022-08-19T06:46:41;100413.03;;;22.61;100.00
36062;BME280;22123;52.412;20.970;2022-08-19T06:49:07;100405.06;;;22.60;100.00
36062;BME280;22123;52.412;20.970;2022-08-19T06:51:35;100405.97;;;22.65;100.00
36062;BME280;22123;52.412;20.970;2022-08-19T06:54:01;100412.91;;;22.73;100.00
36062;BME280;22123;52.412;20.970;2022-08-19T06:56:29;100418.97;;;22.97;100.00
36062;BME280;22123;52.412;20.970;2022-08-19T06:59:00;100419.03;;;23.24;100.00
36062;BME280;22123;52.412;20.970;2022-08-19T07:01:26;100413.81;;;23.50;100.00
36062;BME280;22123;52.412;20.970;2022-08-19T07:03:51;100406.94;;;23.80;100.00
36062;BME280;22123;52.412;20.970;2022-08-19T07:06:18;100414.06;;;24.08;100.00
36062;BME280;22123;52.412;20.970;2022-08-19T07:08:46;100409.69;;;24.12;100.00
36062;BME280;22123;52.412;20.970;2022-08-19T07:11:13;100405.06;;;24.18;100.00
36062;BME280;22123;52.412;20.970;2022-08-19T07:13:40;100428.38;;;24.53;100.00
36062;BME280;22123;52.412;20.970;2022-08-19T07:16:10;100425.25;;;24.77;100.00
36062;BME280;22123;52.412;20.970;2022-08-19T07:18:36;100414.81;;;24.89;100.00
36062;BME280;22123;52.412;20.970;2022-08-19T07:21:05;100428.41;;;25.16;100.00
36062;BME280;22123;52.412;20.970;2022-08-19T07:23:31;100434.50;;;25.24;100.00
36062;BME280;22123;52.412;20.970;2022-08-19T07:25:56;100435.94;;;25.37;100.00
36062;BME280;22123;52.412;20.970;2022-08-19T07:28:22;100434.31;;;25.41;100.00
36062;BME280;22123;52.412;20.970;2022-08-19T07:30:47;100423.31;;;25.51;100.00
36062;BME280;22123;52.412;20.970;2022-08-19T07:33:13;100427.72;;;25.67;100.00
36062;BME280;22123;52.412;20.970;2022-08-19T07:35:38;100413.94;;;25.78;100.00
36062;BME280;22123;52.412;20.970;2022-08-19T07:38:04;100412.56;;;25.85;100.00
36062;BME280;22123;52.412;20.970;2022-08-19T07:40:36;100404.56;;;25.89;100.00
36062;BME280;22123;52.412;20.970;2022-08-19T07:43:01;100403.50;;;26.06;100.00
36062;BME280;22123;52.412;20.970;2022-08-19T07:45:27;100392.72;;;26.09;100.00
36062;BME280;22123;52.412;20.970;2022-08-19T07:47:53;100395.69;;;26.44;100.00
36062;BME280;22123;52.412;20.970;2022-08-19T07:50:20;100393.44;;;26.56;100.00
36062;BME280;22123;52.412;20.970;2022-08-19T07:52:45;100400.88;;;26.71;100.00
36062;BME280;22123;52.412;20.970;2022-08-19T07:55:12;100405.53;;;26.81;100.00
36062;BME280;22123;52.412;20.970;2022-08-19T07:57:37;100406.56;;;27.00;100.00
36062;BME280;22123;52.412;20.970;2022-08-19T08:00:04;100411.16;;;27.15;100.00
36062;BME280;22123;52.412;20.970;2022-08-19T08:02:30;100405.44;;;27.01;100.00
36062;BME280;22123;52.412;20.970;2022-08-19T08:04:55;100412.25;;;27.19;100.00
36062;BME280;22123;52.412;20.970;2022-08-19T08:07:39;100401.31;;;27.49;100.00
36062;BME280;22123;52.412;20.970;2022-08-19T08:10:23;100395.56;;;27.80;100.00
36062;BME280;22123;52.412;20.970;2022-08-19T08:12:51;100409.75;;;28.02;100.00
36062;BME280;22123;52.412;20.970;2022-08-19T08:15:16;100389.72;;;28.16;100.00
36062;BME280;22123;52.412;20.970;2022-08-19T08:17:43;100402.16;;;28.42;100.00
36062;BME280;22123;52.412;20.970;2022-08-19T08:20:10;100394.22;;;28.60;100.00
36062;BME280;22123;52.412;20.970;2022-08-19T08:22:36;100399.81;;;28.79;100.00
36062;BME280;22123;52.412;20.970;2022-08-19T08:25:22;100390.56;;;28.89;100.00
36062;BME280;22123;52.412;20.970;2022-08-19T08:27:48;100396.28;;;28.97;100.00
36062;BME280;22123;52.412;20.970;2022-08-19T08:30:21;100393.50;;;29.17;100.00
36062;BME280;22123;52.412;20.970;2022-08-19T08:32:47;100395.44;;;29.40;100.00
36062;BME280;22123;52.412;20.970;2022-08-19T08:35:15;100394.25;;;29.79;100.00
36062;BME280;22123;52.412;20.970;2022-08-19T08:37:42;100402.06;;;30.10;100.00
36062;BME280;22123;52.412;20.970;2022-08-19T08:40:39;100414.63;;;30.22;100.00
36062;BME280;22123;52.412;20.970;2022-08-19T08:46:00;100407.78;;;30.47;100.00
36062;BME280;22123;52.412;20.970;2022-08-19T08:48:46;100399.16;;;30.62;100.00
36062;BME280;22123;52.412;20.970;2022-08-19T08:51:18;100392.25;;;30.60;100.00
36062;BME280;22123;52.412;20.970;2022-08-19T08:53:46;100396.78;;;30.69;100.00
36062;BME280;22123;52.412;20.970;2022-08-19T08:56:14;100407.69;;;30.66;100.00
36062;BME280;22123;52.412;20.970;2022-08-19T09:01:29;100410.66;;;30.56;100.00
36062;BME280;22123;52.412;20.970;2022-08-19T09:03:54;100428.19;;;30.37;100.00
36062;BME280;22123;52.412;20.970;2022-08-19T09:08:49;100422.72;;;30.18;100.00
36062;BME280;22123;52.412;20.970;2022-08-19T09:11:42;100428.16;;;30.09;100.00
36062;BME280;22123;52.412;20.970;2022-08-19T09:14:44;100434.84;;;30.08;100.00
36062;BME280;22123;52.412;20.970;2022-08-19T09:17:12;100429.31;;;30.08;100.00
36062;BME280;22123;52.412;20.970;2022-08-19T09:19:59;100413.97;;;29.97;100.00
36062;BME280;22123;52.412;20.970;2022-08-19T09:22:36;100431.66;;;30.01;100.00
36062;BME280;22123;52.412;20.970;2022-08-19T09:25:02;100418.78;;;29.91;100.00
36062;BME280;22123;52.412;20.970;2022-08-19T09:27:28;100421.41;;;29.82;100.00
36062;BME280;22123;52.412;20.970;2022-08-19T09:29:55;100431.63;;;29.82;100.00
36062;BME280;22123;52.412;20.970;2022-08-19T09:32:21;100431.91;;;29.66;100.00
36062;BME280;22123;52.412;20.970;2022-08-19T09:34:47;100417.97;;;29.53;100.00
36062;BME280;22123;52.412;20.970;2022-08-19T09:37:13;100414.75;;;29.45;100.00
36062;BME280;22123;52.412;20.970;2022-08-19T09:39:39;100421.09;;;29.46;100.00
36062;BME280;22123;52.412;20.970;2022-08-19T09:42:07;100424.13;;;29.49;100.00
36062;BME280;22123;52.412;20.970;2022-08-19T09:44:40;100418.50;;;29.55;100.00
36062;BME280;22123;52.412;20.970;2022-08-19T09:47:06;100438.78;;;29.69;100.00
36062;BME280;22123;52.412;20.970;2022-08-19T09:49:32;100433.75;;;29.71;100.00
36062;BME280;22123;52.412;20.970;2022-08-19T09:51:59;100424.31;;;29.72;100.00
36062;BME280;22123;52.412;20.970;2022-08-19T09:54:24;100421.00;;;29.70;100.00
36062;BME280;22123;52.412;20.970;2022-08-19T09:56:50;100426.50;;;29.75;100.00
36062;BME280;22123;52.412;20.970;2022-08-19T09:59:15;100424.19;;;29.82;100.00
36062;BME280;22123;52.412;20.970;2022-08-19T10:01:41;100436.91;;;30.03;100.00
36062;BME280;22123;52.412;20.970;2022-08-19T10:04:06;100429.63;;;30.21;100.00
36062;BME280;22123;52.412;20.970;2022-08-19T10:06:34;100426.72;;;30.45;100.00
36062;BME280;22123;52.412;20.970;2022-08-19T10:09:00;100421.78;;;30.56;100.00
36062;BME280;22123;52.412;20.970;2022-08-19T10:11:25;100414.81;;;30.72;100.00
36062;BME280;22123;52.412;20.970;2022-08-19T10:13:51;100405.59;;;30.99;100.00
36062;BME280;22123;52.412;20.970;2022-08-19T10:16:20;100401.00;;;31.31;100.00
36062;BME280;22123;52.412;20.970;2022-08-19T10:18:47;100396.84;;;31.57;100.00
36062;BME280;22123;52.412;20.970;2022-08-19T10:21:21;100396.66;;;31.76;100.00
36062;BME280;22123;52.412;20.970;2022-08-19T10:23:49;100402.53;;;31.97;100.00
36062;BME280;22123;52.412;20.970;2022-08-19T10:26:21;100398.69;;;32.15;100.00
36062;BME280;22123;52.412;20.970;2022-08-19T10:28:48;100394.59;;;32.53;100.00
36062;BME280;22123;52.412;20.970;2022-08-19T10:31:18;100394.78;;;32.97;100.00
36062;BME280;22123;52.412;20.970;2022-08-19T10:33:46;100402.34;;;33.22;100.00
36062;BME280;22123;52.412;20.970;2022-08-19T10:36:16;100395.47;;;33.55;100.00
36062;BME280;22123;52.412;20.970;2022-08-19T10:38:46;100389.53;;;33.91;100.00
36062;BME280;22123;52.412;20.970;2022-08-19T10:41:19;100396.81;;;34.31;100.00
36062;BME280;22123;52.412;20.970;2022-08-19T10:43:45;100398.34;;;34.58;100.00
36062;BME280;22123;52.412;20.970;2022-08-19T10:46:13;100390.75;;;34.68;100.00
36062;BME280;22123;52.412;20.970;2022-08-19T10:48:40;100395.88;;;34.57;100.00
36062;BME280;22123;52.412;20.970;2022-08-19T10:51:05;100392.44;;;34.12;100.00
36062;BME280;22123;52.412;20.970;2022-08-19T10:53:50;100388.25;;;33.62;100.00
36062;BME280;22123;52.412;20.970;2022-08-19T10:56:16;100395.50;;;33.28;100.00
36062;BME280;22123;52.412;20.970;2022-08-19T10:59:00;100386.69;;;32.86;100.00
36062;BME280;22123;52.412;20.970;2022-08-19T11:01:28;100374.00;;;32.63;100.00
36062;BME280;22123;52.412;20.970;2022-08-19T11:03:55;100381.53;;;32.53;100.00
36062;BME280;22123;52.412;20.970;2022-08-19T11:06:21;100385.09;;;32.45;100.00
36062;BME280;22123;52.412;20.970;2022-08-19T11:08:46;100379.81;;;32.35;100.00
36062;BME280;22123;52.412;20.970;2022-08-19T11:11:12;100376.19;;;32.26;100.00
36062;BME280;22123;52.412;20.970;2022-08-19T11:13:39;100361.38;;;32.16;100.00
36062;BME280;22123;52.412;20.970;2022-08-19T11:16:15;100360.31;;;32.35;100.00
36062;BME280;22123;52.412;20.970;2022-08-19T11:18:46;100371.81;;;32.42;100.00
36062;BME280;22123;52.412;20.970;2022-08-19T11:23:43;100357.00;;;32.33;100.00
36062;BME280;22123;52.412;20.970;2022-08-19T11:26:08;100349.13;;;32.26;100.00
36062;BME280;22123;52.412;20.970;2022-08-19T11:28:34;100346.44;;;32.12;100.00
36062;BME280;22123;52.412;20.970;2022-08-19T11:30:59;100340.31;;;32.01;100.00
36062;BME280;22123;52.412;20.970;2022-08-19T11:33:25;100355.25;;;32.05;100.00
36062;BME280;22123;52.412;20.970;2022-08-19T11:35:52;100342.41;;;31.96;100.00
36062;BME280;22123;52.412;20.970;2022-08-19T11:38:18;100341.91;;;31.94;100.00
36062;BME280;22123;52.412;20.970;2022-08-19T11:40:43;100345.03;;;32.01;100.00
36062;BME280;22123;52.412;20.970;2022-08-19T11:43:09;100344.13;;;32.05;100.00
36062;BME280;22123;52.412;20.970;2022-08-19T11:45:35;100327.06;;;31.98;100.00
36062;BME280;22123;52.412;20.970;2022-08-19T11:48:01;100329.16;;;31.93;100.00
36062;BME280;22123;52.412;20.970;2022-08-19T11:50:27;100333.06;;;31.92;100.00
36062;BME280;22123;52.412;20.970;2022-08-19T11:52:56;100337.63;;;31.87;100.00
36062;BME280;22123;52.412;20.970;2022-08-19T11:55:22;100336.50;;;31.88;100.00
36062;BME280;22123;52.412;20.970;2022-08-19T11:57:47;100320.91;;;31.87;100.00
36062;BME280;22123;52.412;20.970;2022-08-19T12:00:13;100324.44;;;32.02;100.00
36062;BME280;22123;52.412;20.970;2022-08-19T12:02:40;100326.56;;;32.05;100.00
36062;BME280;22123;52.412;20.970;2022-08-19T12:05:05;100313.22;;;31.84;100.00
36062;BME280;22123;52.412;20.970;2022-08-19T12:07:33;100313.84;;;31.81;100.00
36062;BME280;22123;52.412;20.970;2022-08-19T12:09:59;100303.75;;;31.85;100.00
36062;BME280;22123;52.412;20.970;2022-08-19T12:12:25;100292.59;;;31.85;100.00
36062;BME280;22123;52.412;20.970;2022-08-19T12:14:51;100302.44;;;31.92;100.00
36062;BME280;22123;52.412;20.970;2022-08-19T12:17:23;100306.41;;;31.99;100.00
36062;BME280;22123;52.412;20.970;2022-08-19T12:19:50;100290.66;;;31.95;100.00
36062;BME280;22123;52.412;20.970;2022-08-19T12:22:16;100282.16;;;31.91;100.00
36062;BME280;22123;52.412;20.970;2022-08-19T12:24:41;100287.75;;;31.68;100.00
36062;BME280;22123;52.412;20.970;2022-08-19T12:27:06;100294.66;;;31.71;100.00
36062;BME280;22123;52.412;20.970;2022-08-19T12:29:32;100294.50;;;31.76;100.00
36062;BME280;22123;52.412;20.970;2022-08-19T12:31:58;100296.53;;;31.84;100.00
36062;BME280;22123;52.412;20.970;2022-08-19T12:34:31;100279.13;;;31.79;100.00
36062;BME280;22123;52.412;20.970;2022-08-19T12:36:58;100284.63;;;31.93;100.00
36062;BME280;22123;52.412;20.970;2022-08-19T12:39:23;100283.94;;;31.87;100.00
36062;BME280;22123;52.412;20.970;2022-08-19T12:41:50;100278.88;;;31.98;100.00
36062;BME280;22123;52.412;20.970;2022-08-19T12:44:16;100272.31;;;31.94;100.00